createdAt,value
2019-05-06T00:02:16.911Z,8.33
2019-05-06T00:04:47.212Z,9.00
2019-05-06T00:07:17.490Z,9.23
2019-05-06T00:09:47.695Z,9.38
2019-05-06T00:12:17.963Z,8.25
2019-05-06T00:14:48.230Z,8.18
2019-05-06T00:17:18.761Z,8.38
2019-05-06T00:19:49.059Z,10.25
2019-05-06T00:22:19.248Z,8.05
2019-05-06T00:24:56.534Z,8.45
2019-05-06T00:27:48.278Z,10.50
2019-05-06T00:30:18.699Z,9.10
2019-05-06T00:32:48.892Z,10.72
2019-05-06T00:35:19.343Z,10.18
2019-05-06T00:37:49.739Z,9.65
2019-05-06T00:40:28.179Z,9.40
2019-05-06T00:43:04.785Z,7.53
2019-05-06T00:45:35.286Z,8.73
2019-05-06T00:48:05.663Z,8.63
2019-05-06T00:50:36.032Z,8.50
2019-05-06T00:53:07.903Z,7.05
2019-05-06T00:55:38.133Z,8.55
2019-05-06T00:58:08.358Z,7.58
2019-05-06T01:00:38.771Z,7.97
2019-05-06T01:03:10.098Z,7.70
2019-05-06T01:05:40.437Z,7.92
2019-05-06T01:08:10.803Z,8.75
2019-05-06T01:10:41.268Z,8.10
2019-05-06T01:13:43.818Z,8.23
2019-05-06T01:16:16.408Z,8.33
2019-05-06T01:18:46.656Z,8.90
2019-05-06T01:21:16.992Z,9.43
2019-05-06T01:23:47.262Z,9.33
2019-05-06T01:26:18.215Z,9.10
2019-05-06T01:28:48.657Z,9.15
2019-05-06T01:31:19.025Z,8.23
2019-05-06T01:33:49.186Z,9.00
2019-05-06T01:36:19.456Z,8.98
2019-05-06T01:38:58.832Z,10.40
2019-05-06T01:41:49.195Z,9.93
2019-05-06T01:44:19.443Z,10.40
2019-05-06T01:46:50.823Z,13.32
2019-05-06T01:49:21.011Z,14.68
2019-05-06T01:51:51.303Z,11.45
2019-05-06T01:54:21.519Z,12.33
2019-05-06T01:56:53.679Z,11.10
2019-05-06T01:59:24.601Z,10.82
2019-05-06T02:02:00.817Z,11.35
2019-05-06T02:04:27.251Z,10.00
2019-05-06T02:06:57.599Z,12.78
2019-05-06T02:09:28.132Z,11.12
2019-05-06T02:11:58.943Z,10.98
2019-05-06T02:14:30.253Z,9.88
2019-05-06T02:17:00.593Z,9.88
2019-05-06T02:19:31.757Z,10.70
2019-05-06T02:22:10.470Z,10.32
2019-05-06T02:24:56.712Z,10.63
2019-05-06T02:27:27.014Z,10.68
2019-05-06T02:30:05.383Z,9.90
2019-05-06T02:32:45.341Z,8.53
2019-05-06T02:35:28.956Z,9.13
2019-05-06T02:37:59.291Z,7.70
2019-05-06T02:40:33.338Z,8.13
2019-05-06T02:43:04.012Z,8.43
2019-05-06T02:45:34.369Z,8.28
2019-05-06T02:48:27.213Z,7.90
2019-05-06T02:51:16.537Z,8.60
2019-05-06T02:53:46.804Z,7.62
2019-05-06T02:56:17.324Z,7.40
2019-05-06T02:58:47.643Z,8.48
2019-05-06T03:01:17.873Z,7.90
2019-05-06T03:03:48.111Z,7.75
2019-05-06T03:06:18.345Z,8.85
2019-05-06T03:08:48.549Z,9.50
2019-05-06T03:11:18.777Z,9.98
2019-05-06T03:13:49.170Z,9.33
2019-05-06T03:16:23.510Z,9.25
2019-05-06T03:18:53.417Z,8.25
2019-05-06T03:21:44.775Z,8.78
2019-05-06T03:24:43.622Z,10.20
2019-05-06T03:27:14.409Z,10.93
2019-05-06T03:29:44.972Z,10.80
2019-05-06T03:32:22.961Z,11.80
2019-05-06T03:35:09.074Z,9.83
2019-05-06T03:37:20.296Z,10.53
2019-05-06T03:39:52.923Z,9.68
2019-05-06T03:42:26.691Z,10.88
2019-05-06T03:45:04.127Z,9.88
2019-05-06T03:47:42.727Z,9.53
2019-05-06T03:50:13.292Z,10.20
2019-05-06T03:52:43.826Z,10.70
2019-05-06T03:55:14.552Z,10.50
2019-05-06T03:57:47.078Z,11.03
2019-05-06T04:00:18.441Z,10.53
2019-05-06T04:02:48.627Z,9.20
2019-05-06T04:05:18.842Z,10.93
2019-05-06T04:07:49.163Z,11.05
2019-05-06T04:10:19.437Z,12.58
2019-05-06T04:12:53.478Z,10.98
2019-05-06T04:15:26.650Z,10.40
2019-05-06T04:18:00.434Z,10.00
2019-05-06T04:20:47.273Z,10.18
2019-05-06T04:23:25.899Z,10.55
2019-05-06T04:26:03.585Z,11.22
2019-05-06T04:28:34.981Z,10.95
2019-05-06T04:31:06.582Z,11.57
2019-05-06T04:33:36.920Z,10.20
2019-05-06T04:36:07.333Z,10.63
2019-05-06T04:38:37.641Z,11.18
2019-05-06T04:41:07.997Z,10.05
2019-05-06T04:43:38.656Z,12.05
2019-05-06T04:46:09.019Z,12.07
2019-05-06T04:48:39.542Z,11.70
2019-05-06T04:51:13.419Z,10.15
2019-05-06T04:53:44.091Z,10.53
2019-05-06T04:56:14.808Z,10.00
2019-05-06T04:58:45.118Z,10.72
2019-05-06T05:01:15.804Z,11.57
2019-05-06T05:03:46.611Z,11.18
2019-05-06T05:06:17.099Z,11.30
2019-05-06T05:08:47.538Z,9.95
2019-05-06T05:11:42.082Z,10.58
2019-05-06T05:14:33.945Z,10.98
2019-05-06T05:17:14.204Z,11.90
2019-05-06T05:19:44.665Z,10.65
2019-05-06T05:22:15.847Z,11.35
2019-05-06T05:24:46.331Z,12.55
2019-05-06T05:27:16.677Z,14.05
2019-05-06T05:29:47.353Z,14.70
2019-05-06T05:32:17.783Z,21.45
2019-05-06T05:34:48.128Z,18.85
2019-05-06T05:37:19.144Z,15.68
2019-05-06T05:39:51.854Z,15.35
2019-05-06T05:42:32.748Z,16.70
2019-05-06T05:45:04.306Z,12.73
2019-05-06T05:47:34.727Z,12.95
2019-05-06T05:50:23.044Z,13.15
2019-05-06T05:52:54.021Z,13.22
2019-05-06T05:55:24.504Z,13.50
2019-05-06T05:57:56.878Z,11.88
2019-05-06T06:00:28.954Z,12.88
2019-05-06T06:02:59.352Z,13.08
2019-05-06T06:05:30.276Z,14.00
2019-05-06T06:08:02.900Z,14.73
2019-05-06T06:10:39.789Z,11.60
2019-05-06T06:13:10.144Z,13.30
2019-05-06T06:15:59.597Z,15.10
2019-05-06T06:18:47.203Z,20.80
2019-05-06T06:21:32.249Z,23.15
2019-05-06T06:24:07.827Z,9.28
2019-05-06T06:26:38.509Z,12.98
2019-05-06T06:29:12.525Z,13.75
2019-05-06T06:31:48.328Z,13.43
2019-05-06T06:34:38.780Z,13.78
2019-05-06T06:37:26.896Z,14.68
2019-05-06T06:39:57.813Z,14.47
2019-05-06T06:42:28.268Z,14.58
2019-05-06T06:44:58.709Z,13.68
2019-05-06T06:47:29.074Z,12.68
2019-05-06T06:49:59.482Z,13.58
2019-05-06T06:52:29.675Z,14.38
2019-05-06T06:55:01.879Z,14.53
2019-05-06T06:57:51.904Z,15.18
2019-05-06T07:00:42.530Z,13.72
2019-05-06T07:03:16.605Z,13.80
2019-05-06T07:05:54.981Z,13.13
2019-05-06T07:08:34.877Z,13.68
2019-05-06T07:10:57.304Z,13.10
2019-05-06T07:13:27.773Z,12.90
2019-05-06T07:15:57.971Z,12.65
2019-05-06T07:18:28.251Z,13.20
2019-05-06T07:21:26.812Z,15.53
2019-05-06T07:23:57.172Z,11.80
2019-05-06T07:26:31.801Z,9.48
2019-05-06T07:29:03.969Z,10.28
2019-05-06T07:31:34.196Z,10.08
2019-05-06T07:34:04.544Z,9.68
2019-05-06T07:36:34.841Z,11.10
2019-05-06T07:39:06.922Z,12.58
2019-05-06T07:41:46.095Z,10.03
2019-05-06T07:44:42.359Z,12.05
2019-05-06T07:47:23.913Z,12.10
2019-05-06T07:49:54.749Z,10.38
2019-05-06T07:52:25.014Z,11.25
2019-05-06T07:54:55.671Z,10.43
2019-05-06T07:57:25.935Z,10.23
2019-05-06T07:59:56.423Z,9.43
2019-05-06T08:02:26.815Z,10.63
2019-05-06T08:04:57.300Z,9.50
2019-05-06T08:07:27.831Z,12.53
2019-05-06T08:09:58.115Z,11.88
2019-05-06T08:12:28.329Z,11.28
2019-05-06T08:14:58.590Z,12.23
2019-05-06T08:17:36.265Z,11.18
2019-05-06T08:20:13.112Z,12.18
2019-05-06T08:22:48.190Z,10.85
2019-05-06T08:25:18.525Z,10.00
2019-05-06T08:27:49.615Z,9.53
2019-05-06T08:30:22.968Z,8.55
2019-05-06T08:32:53.127Z,9.90
2019-05-06T08:35:23.701Z,7.67
2019-05-06T08:37:54.094Z,7.75
2019-05-06T08:40:26.491Z,8.35
2019-05-06T08:42:56.361Z,8.00
2019-05-06T08:45:26.683Z,8.28
2019-05-06T08:47:57.165Z,7.97
2019-05-06T08:50:44.815Z,8.53
2019-05-06T08:53:19.564Z,7.78
2019-05-06T08:55:49.931Z,5.95
2019-05-06T08:58:23.435Z,6.00
2019-05-06T09:01:02.718Z,7.53
2019-05-06T09:03:33.259Z,6.37
2019-05-06T09:06:03.507Z,7.35
2019-05-06T09:08:33.766Z,6.17
2019-05-06T09:11:04.162Z,6.90
2019-05-06T09:13:34.459Z,5.10
2019-05-06T09:16:04.957Z,5.58
2019-05-06T09:18:35.150Z,6.50
2019-05-06T09:21:05.506Z,5.10
2019-05-06T09:23:35.768Z,4.87
2019-05-06T09:26:07.807Z,4.80
2019-05-06T09:28:46.263Z,4.87
2019-05-06T09:31:19.884Z,5.03
2019-05-06T09:33:55.233Z,3.83
2019-05-06T09:36:39.955Z,5.05
2019-05-06T09:38:57.538Z,4.22
2019-05-06T09:41:27.861Z,4.40
2019-05-06T09:43:58.053Z,4.72
2019-05-06T09:46:28.382Z,4.20
2019-05-06T09:49:22.904Z,3.83
2019-05-06T09:51:54.036Z,2.95
2019-05-06T09:54:48.016Z,2.20
2019-05-06T09:57:42.363Z,2.90
2019-05-06T10:00:16.625Z,3.27
2019-05-06T10:02:49.502Z,2.83
2019-05-06T10:05:18.844Z,3.05
2019-05-06T10:07:49.360Z,2.95
2019-05-06T10:10:19.712Z,2.42
2019-05-06T10:12:50.101Z,3.00
2019-05-06T10:15:20.946Z,2.40
2019-05-06T10:18:12.560Z,3.00
2019-05-06T10:20:44.498Z,3.00
2019-05-06T10:23:15.258Z,3.17
2019-05-06T10:25:45.712Z,2.90
2019-05-06T10:28:36.944Z,2.50
2019-05-06T10:31:09.700Z,2.50
2019-05-06T10:33:58.597Z,2.75
2019-05-06T10:36:35.639Z,2.70
2019-05-06T10:39:09.837Z,2.70
2019-05-06T10:41:42.805Z,2.90
2019-05-06T10:44:26.544Z,2.77
2019-05-06T10:46:57.035Z,3.00
2019-05-06T10:49:27.390Z,2.87
2019-05-06T10:52:08.103Z,3.02
2019-05-06T10:54:38.460Z,3.10
2019-05-06T10:57:18.484Z,2.87
2019-05-06T10:59:48.755Z,3.30
2019-05-06T11:02:44.287Z,3.17
2019-05-06T11:05:14.878Z,2.65
2019-05-06T11:07:45.134Z,2.95
2019-05-06T11:10:23.755Z,2.50
2019-05-06T11:12:47.473Z,2.85
2019-05-06T11:15:17.816Z,2.87
2019-05-06T11:17:48.088Z,2.90
2019-05-06T11:20:18.367Z,2.47
2019-05-06T11:22:48.531Z,2.58
2019-05-06T11:25:18.883Z,2.60
2019-05-06T11:27:52.451Z,2.42
2019-05-06T11:30:28.829Z,2.40
2019-05-06T11:33:04.838Z,2.50
2019-05-06T11:36:00.218Z,2.30
2019-05-06T11:38:32.238Z,2.60
2019-05-06T11:41:02.669Z,3.15
2019-05-06T11:43:32.854Z,2.50
2019-05-06T11:46:03.272Z,2.50
2019-05-06T11:48:33.478Z,2.45
2019-05-06T11:51:05.864Z,2.40
2019-05-06T11:53:36.062Z,2.50
2019-05-06T11:56:06.412Z,2.30
2019-05-06T11:58:44.371Z,2.65
2019-05-06T12:01:19.543Z,2.30
2019-05-06T12:06:22.473Z,3.15
2019-05-06T12:08:52.421Z,2.65
2019-05-06T12:11:23.816Z,2.87
2019-05-06T12:13:55.371Z,2.90
2019-05-06T12:16:26.441Z,3.20
2019-05-06T12:18:59.663Z,2.60
2019-05-06T12:21:28.655Z,2.40
2019-05-06T12:23:58.928Z,2.50
2019-05-06T12:26:29.191Z,2.77
2019-05-06T12:28:59.363Z,2.40
2019-05-06T12:31:29.544Z,2.40
2019-05-06T12:33:59.727Z,2.20
2019-05-06T12:36:32.296Z,2.52
2019-05-06T12:39:20.335Z,2.50
2019-05-06T12:42:13.683Z,2.35
2019-05-06T12:44:57.065Z,3.60
2019-05-06T12:47:33.208Z,2.45
2019-05-06T12:50:04.761Z,2.40
2019-05-06T12:52:36.600Z,2.27
2019-05-06T12:55:18.292Z,2.60
2019-05-06T12:57:39.095Z,2.72
2019-05-06T13:00:13.089Z,3.33
2019-05-06T13:02:43.847Z,3.20
2019-05-06T13:05:15.376Z,2.80
2019-05-06T13:07:46.993Z,3.00
2019-05-06T13:10:22.824Z,3.40
2019-05-06T13:13:00.225Z,3.25
2019-05-06T13:15:30.894Z,3.05
2019-05-06T13:18:06.516Z,3.60
2019-05-06T13:20:34.357Z,3.65
2019-05-06T13:23:20.687Z,3.67
2019-05-06T13:25:45.618Z,4.35
2019-05-06T13:28:17.794Z,3.87
2019-05-06T13:30:48.075Z,3.80
2019-05-06T13:33:30.018Z,3.67
2019-05-06T13:36:00.543Z,3.67
2019-05-06T13:38:32.132Z,3.77
2019-05-06T13:41:03.402Z,4.08
2019-05-06T13:43:38.787Z,3.62
2019-05-06T13:46:23.562Z,3.40
2019-05-06T13:49:13.349Z,3.52
2019-05-06T13:51:52.201Z,3.75
2019-05-06T13:54:22.435Z,4.12
2019-05-06T13:56:52.919Z,4.22
2019-05-06T13:59:23.099Z,3.90
2019-05-06T14:02:00.220Z,3.95
2019-05-06T14:04:32.585Z,3.40
2019-05-06T14:07:06.913Z,4.28
2019-05-06T14:09:39.959Z,4.00
2019-05-06T14:12:06.150Z,3.87
2019-05-06T14:14:36.334Z,4.22
2019-05-06T14:17:06.606Z,5.75
2019-05-06T14:19:36.798Z,4.25
2019-05-06T14:22:07.070Z,5.22
2019-05-06T14:24:38.994Z,4.28
2019-05-06T14:27:11.146Z,4.42
2019-05-06T14:29:46.374Z,4.10
2019-05-06T14:34:45.825Z,3.30
2019-05-06T14:37:16.119Z,3.80
2019-05-06T14:39:55.496Z,3.30
2019-05-06T14:42:22.174Z,3.55
2019-05-06T14:44:52.556Z,3.22
2019-05-06T14:47:28.228Z,3.98
2019-05-06T14:49:58.647Z,3.75
2019-05-06T14:52:28.926Z,4.35
2019-05-06T14:55:09.399Z,4.12
2019-05-06T14:57:39.691Z,3.95
2019-05-06T15:00:12.279Z,5.53
2019-05-06T15:02:42.905Z,4.65
2019-05-06T15:05:13.596Z,3.50
2019-05-06T15:07:43.839Z,3.70
2019-05-06T15:10:22.652Z,3.65
2019-05-06T15:12:46.327Z,3.33
2019-05-06T15:15:17.084Z,4.00
2019-05-06T15:17:47.550Z,3.20
2019-05-06T15:20:22.477Z,3.60
2019-05-06T15:22:54.015Z,3.22
2019-05-06T15:25:24.211Z,3.40
2019-05-06T15:27:54.471Z,3.15
2019-05-06T15:30:34.040Z,5.20
2019-05-06T15:33:06.190Z,3.72
2019-05-06T15:35:44.606Z,3.80
2019-05-06T15:38:19.593Z,3.77
2019-05-06T15:40:52.254Z,3.37
2019-05-06T15:43:22.807Z,3.90
2019-05-06T15:45:53.189Z,3.85
2019-05-06T15:48:23.506Z,3.50
2019-05-06T15:50:53.784Z,3.17
2019-05-06T15:53:23.987Z,2.83
2019-05-06T15:55:54.360Z,3.12
2019-05-06T15:58:24.640Z,2.72
2019-05-06T16:00:54.974Z,2.90
2019-05-06T16:03:25.184Z,3.00
2019-05-06T16:05:55.475Z,2.85
2019-05-06T16:08:25.847Z,2.47
2019-05-06T16:10:58.859Z,2.60
2019-05-06T16:13:28.128Z,2.50
2019-05-06T16:15:58.451Z,2.80
2019-05-06T16:18:28.700Z,3.15
2019-05-06T16:20:58.907Z,3.10
2019-05-06T16:23:54.674Z,2.80
2019-05-06T16:26:23.862Z,3.10
2019-05-06T16:28:54.209Z,3.05
2019-05-06T16:31:24.780Z,3.42
2019-05-06T16:33:55.095Z,3.10
2019-05-06T16:36:25.442Z,2.87
2019-05-06T16:38:55.836Z,3.33
2019-05-06T16:41:26.083Z,3.22
2019-05-06T16:43:56.374Z,3.00
2019-05-06T16:46:26.636Z,4.28
2019-05-06T16:48:56.891Z,3.08
2019-05-06T16:51:27.187Z,2.95
2019-05-06T16:53:57.378Z,3.37
2019-05-06T16:56:38.893Z,3.30
2019-05-06T16:59:10.133Z,3.80
2019-05-06T17:01:42.638Z,2.87
2019-05-06T17:04:27.350Z,3.60
2019-05-06T17:06:57.591Z,3.22
2019-05-06T17:09:32.523Z,3.37
2019-05-06T17:12:00.095Z,3.37
2019-05-06T17:14:32.155Z,3.40
2019-05-06T17:17:03.276Z,2.80
2019-05-06T17:19:33.662Z,3.35
2019-05-06T17:22:04.007Z,3.20
2019-05-06T17:24:34.222Z,2.95
2019-05-06T17:27:04.576Z,3.40
2019-05-06T17:30:09.162Z,3.02
2019-05-06T17:32:42.830Z,3.02
2019-05-06T17:35:13.490Z,3.12
2019-05-06T17:37:59.091Z,3.42
2019-05-06T17:42:58.856Z,3.58
2019-05-06T17:45:58.536Z,3.55
2019-05-06T17:48:39.316Z,3.27
2019-05-06T17:51:17.571Z,3.08
2019-05-06T17:53:52.312Z,4.30
2019-05-06T17:56:22.865Z,4.67
2019-05-06T17:58:53.395Z,4.33
2019-05-06T18:01:32.672Z,4.05
2019-05-06T18:04:02.745Z,3.45
2019-05-06T18:06:33.326Z,4.67
2019-05-06T18:09:06.100Z,4.15
2019-05-06T18:11:38.094Z,6.30
2019-05-06T18:14:08.747Z,6.17
2019-05-06T18:16:39.065Z,7.37
2019-05-06T18:19:09.440Z,6.53
2019-05-06T18:21:39.683Z,7.67
2019-05-06T18:24:12.652Z,5.80
2019-05-06T18:26:42.216Z,6.05
2019-05-06T18:29:12.782Z,5.10
2019-05-06T18:31:43.145Z,20.02
2019-05-06T18:34:13.423Z,9.83
2019-05-06T18:36:44.399Z,6.25
2019-05-06T18:39:14.843Z,5.67
2019-05-06T18:41:45.217Z,6.37
2019-05-06T18:44:15.912Z,7.30
2019-05-06T18:46:46.251Z,5.75
2019-05-06T18:49:16.524Z,6.33
2019-05-06T18:51:46.731Z,5.78
2019-05-06T18:54:17.038Z,7.25
2019-05-06T18:56:47.376Z,5.12
2019-05-06T18:59:18.144Z,5.15
2019-05-06T19:01:48.655Z,6.30
2019-05-06T19:04:24.505Z,5.80
2019-05-06T19:07:09.175Z,5.15
2019-05-06T19:09:42.377Z,5.47
2019-05-06T19:14:43.185Z,5.60
2019-05-06T19:17:13.915Z,5.08
2019-05-06T19:19:44.241Z,5.37
2019-05-06T19:22:15.565Z,5.33
2019-05-06T19:24:45.871Z,5.83
2019-05-06T19:27:16.461Z,6.92
2019-05-06T19:29:46.827Z,5.70
2019-05-06T19:32:17.171Z,5.30
2019-05-06T19:34:47.460Z,4.90
2019-05-06T19:37:17.750Z,6.15
2019-05-06T19:39:48.004Z,6.37
2019-05-06T19:42:19.271Z,6.12
2019-05-06T19:44:49.801Z,5.62
2019-05-06T19:47:20.641Z,5.35
2019-05-06T19:49:53.147Z,5.95
2019-05-06T19:52:25.130Z,5.85
2019-05-06T19:54:55.625Z,5.42
2019-05-06T19:57:25.935Z,5.10
2019-05-06T19:59:56.308Z,5.12
2019-05-06T20:02:26.606Z,5.03
2019-05-06T20:05:03.228Z,5.22
2019-05-06T20:07:52.858Z,5.00
2019-05-06T20:10:41.923Z,18.50
2019-05-06T20:13:13.552Z,13.05
2019-05-06T20:15:43.843Z,5.53
2019-05-06T20:18:14.043Z,5.40
2019-05-06T20:20:44.364Z,5.92
2019-05-06T20:23:15.538Z,4.70
2019-05-06T20:25:45.743Z,4.90
2019-05-06T20:28:16.063Z,4.83
2019-05-06T20:30:46.382Z,4.83
2019-05-06T20:33:16.674Z,4.83
2019-05-06T20:35:47.259Z,5.05
2019-05-06T20:38:17.512Z,4.22
2019-05-06T20:40:48.130Z,4.35
2019-05-06T20:43:21.615Z,3.98
2019-05-06T20:45:52.130Z,4.08
2019-05-06T20:48:23.477Z,4.40
2019-05-06T20:50:53.980Z,3.80
2019-05-06T20:53:24.248Z,4.10
2019-05-06T20:55:54.466Z,4.22
2019-05-06T20:58:24.827Z,8.90
2019-05-06T21:00:55.166Z,4.17
2019-05-06T21:03:25.429Z,4.15
2019-05-06T21:05:55.688Z,4.58
2019-05-06T21:08:25.900Z,3.62
2019-05-06T21:10:56.323Z,4.30
2019-05-06T21:13:31.811Z,4.08
2019-05-06T21:15:58.634Z,4.30
2019-05-06T21:18:28.832Z,14.98
2019-05-06T21:20:59.229Z,4.67
2019-05-06T21:23:31.971Z,4.25
2019-05-06T21:26:03.298Z,4.45
2019-05-06T21:28:33.683Z,5.10
2019-05-06T21:31:05.505Z,4.03
2019-05-06T21:33:35.693Z,4.70
2019-05-06T21:36:05.967Z,4.05
2019-05-06T21:38:36.152Z,3.80
2019-05-06T21:41:06.500Z,3.90
2019-05-06T21:43:48.839Z,3.55
2019-05-06T21:46:08.617Z,4.30
2019-05-06T21:48:38.960Z,4.28
2019-05-06T21:51:09.334Z,4.30
2019-05-06T21:53:39.746Z,4.35
2019-05-06T21:56:10.014Z,3.98
2019-05-06T21:58:40.185Z,4.22
2019-05-06T22:01:10.746Z,3.90
2019-05-06T22:03:43.398Z,4.30
2019-05-06T22:06:13.837Z,3.95
2019-05-06T22:08:44.282Z,4.00
2019-05-06T22:11:14.560Z,3.92
2019-05-06T22:13:58.000Z,3.83
2019-05-06T22:16:16.995Z,4.12
2019-05-06T22:18:47.347Z,11.35
2019-05-06T22:21:23.216Z,8.10
2019-05-06T22:24:04.242Z,3.85
2019-05-06T22:26:33.154Z,3.98
2019-05-06T22:29:03.740Z,3.92
2019-05-06T22:31:34.294Z,3.50
2019-05-06T22:34:04.614Z,3.87
2019-05-06T22:36:34.959Z,3.72
2019-05-06T22:39:06.480Z,3.72
2019-05-06T22:41:38.575Z,4.08
2019-05-06T22:44:13.646Z,4.03
2019-05-06T22:46:42.572Z,3.52
2019-05-06T22:49:13.439Z,3.85
2019-05-06T22:51:43.771Z,4.22
2019-05-06T22:54:15.171Z,4.40
2019-05-06T22:56:45.376Z,3.40
2019-05-06T22:59:15.718Z,4.45
2019-05-06T23:02:02.455Z,3.52
2019-05-06T23:04:33.464Z,4.05
2019-05-06T23:07:04.838Z,3.83
2019-05-06T23:09:36.318Z,3.80
2019-05-06T23:12:06.737Z,4.08
2019-05-06T23:14:37.359Z,3.95
2019-05-06T23:17:07.766Z,3.95
2019-05-06T23:19:38.205Z,3.70
2019-05-06T23:22:08.406Z,3.47
2019-05-06T23:24:38.651Z,4.40
2019-05-06T23:27:08.996Z,4.08
2019-05-06T23:29:39.329Z,3.95
2019-05-06T23:32:13.705Z,4.28
2019-05-06T23:34:43.296Z,3.60
2019-05-06T23:37:22.913Z,3.58
2019-05-06T23:40:33.248Z,3.67
2019-05-06T23:43:42.512Z,4.10
2019-05-06T23:46:48.326Z,3.58
2019-05-06T23:52:42.382Z,4.30
2019-05-06T23:55:48.753Z,4.65
